ENGM/OSL METAR and TAF weather

Enter ICAO airport designator
Station Type Date Time Source
ENGM METAR 2019/04/18 20:50 UTC NOAA

ENGM 182050Z 36005KT CAVOK 05/M02 Q1037 NOSIG


Station Type Date Time Source
ENGM Decoded METAR 2019/04/18 20:50 UTC NOAA

Oslo / Gardermoen, Norway (ENGM) 60-12N 011-05E 204M
Apr 18, 2019 - 04:50 PM EDT / 2019.04.18 2050 UTC
Wind: from the N (360 degrees) at 6 MPH (5 KT):0
Visibility: greater than 7 mile(s):0
Temperature: 41 F (5 C)
Dew Point: 28 F (-2 C)
Relative Humidity: 60%
Pressure (altimeter): 30.62 in. Hg (1037 hPa)
ob: ENGM 182050Z 36005KT CAVOK 05/M02 Q1037 NOSIG
cycle: 21

Station Type Date Time Source
ENGM TAF 2019/04/18 18:57 UTC NOAA

TAF ENGM 181700Z 1818/1918 VRB05KT CAVOK

Example: see airport list